createdAt,value
2022-08-27T00:01:33.404Z,3.60
2022-08-27T00:04:06.530Z,3.80
2022-08-27T00:06:39.528Z,3.60
2022-08-27T00:09:13.062Z,3.60
2022-08-27T00:11:47.039Z,3.50
2022-08-27T00:14:19.797Z,3.50
2022-08-27T00:16:52.391Z,3.47
2022-08-27T00:19:25.385Z,3.50
2022-08-27T00:21:58.077Z,3.70
2022-08-27T00:24:30.910Z,3.50
2022-08-27T00:27:07.734Z,3.20
2022-08-27T00:29:41.862Z,3.50
2022-08-27T00:32:14.655Z,3.50
2022-08-27T00:34:47.610Z,3.50
2022-08-27T00:37:20.552Z,3.60
2022-08-27T00:40:00.305Z,3.33
2022-08-27T00:42:27.413Z,3.40
2022-08-27T00:45:01.470Z,3.30
2022-08-27T00:47:35.507Z,3.50
2022-08-27T00:50:10.256Z,3.20
2022-08-27T00:52:50.728Z,3.07
2022-08-27T00:55:28.691Z,3.20
2022-08-27T00:58:22.184Z,3.10
2022-08-27T01:00:55.503Z,3.10
2022-08-27T01:03:28.752Z,3.47
2022-08-27T01:06:08.211Z,3.30
2022-08-27T01:08:45.266Z,3.20
2022-08-27T01:11:18.859Z,3.00
2022-08-27T01:14:00.339Z,3.00
2022-08-27T01:16:33.538Z,3.27
2022-08-27T01:19:08.124Z,2.97
2022-08-27T01:21:55.055Z,2.90
2022-08-27T01:24:39.038Z,3.00
2022-08-27T01:27:14.058Z,3.00
2022-08-27T01:29:47.429Z,3.20
2022-08-27T01:32:22.241Z,2.97
2022-08-27T01:34:55.798Z,2.90
2022-08-27T01:37:29.864Z,3.00
2022-08-27T01:40:03.858Z,2.90
2022-08-27T01:42:42.069Z,3.20
2022-08-27T01:45:34.517Z,2.90
2022-08-27T01:48:17.832Z,2.87
2022-08-27T01:50:44.241Z,3.00
2022-08-27T01:53:22.104Z,3.10
2022-08-27T01:55:56.300Z,2.90
2022-08-27T01:58:33.953Z,3.10
2022-08-27T02:01:11.883Z,2.90
2022-08-27T02:03:45.336Z,2.80
2022-08-27T02:06:22.961Z,2.70
2022-08-27T02:08:55.872Z,2.70
2022-08-27T02:11:29.186Z,2.70
2022-08-27T02:14:02.738Z,2.60
2022-08-27T02:16:36.811Z,2.70
2022-08-27T02:19:10.912Z,2.90
2022-08-27T02:21:44.915Z,2.60
2022-08-27T02:24:17.828Z,2.50
2022-08-27T02:26:51.028Z,2.50
2022-08-27T02:29:23.978Z,2.50
2022-08-27T02:31:59.061Z,2.40
2022-08-27T02:34:32.245Z,2.40
2022-08-27T02:37:05.314Z,2.30
2022-08-27T02:39:38.178Z,2.70
2022-08-27T02:42:12.549Z,2.40
2022-08-27T02:44:45.625Z,2.50
2022-08-27T02:47:18.749Z,2.50
2022-08-27T02:49:51.783Z,2.30
2022-08-27T02:52:25.272Z,2.40
2022-08-27T02:54:58.939Z,2.50
2022-08-27T02:57:36.608Z,2.40
2022-08-27T03:00:08.736Z,2.50
2022-08-27T03:02:41.910Z,2.50
2022-08-27T03:05:16.355Z,2.50
2022-08-27T03:07:49.896Z,2.40
2022-08-27T03:10:24.126Z,2.40
2022-08-27T03:12:56.888Z,2.40
2022-08-27T03:15:29.814Z,2.50
2022-08-27T03:18:21.621Z,2.40
2022-08-27T03:20:59.439Z,2.43
2022-08-27T03:23:34.945Z,2.60
2022-08-27T03:26:10.569Z,2.30
2022-08-27T03:28:43.496Z,2.30
2022-08-27T03:31:22.213Z,2.30
2022-08-27T03:33:55.284Z,2.27
2022-08-27T03:36:29.138Z,2.30
2022-08-27T03:39:02.199Z,2.50
2022-08-27T03:41:54.871Z,2.50
2022-08-27T03:44:09.512Z,2.50
2022-08-27T03:46:42.465Z,2.40
2022-08-27T03:49:15.462Z,2.60
2022-08-27T03:51:49.578Z,2.40
2022-08-27T03:54:27.186Z,2.30
2022-08-27T03:57:00.079Z,2.30
2022-08-27T03:59:32.856Z,2.40
2022-08-27T04:02:06.548Z,2.20
2022-08-27T04:04:39.476Z,2.30
2022-08-27T04:07:12.402Z,2.30
2022-08-27T04:09:45.428Z,2.30
2022-08-27T04:12:19.026Z,2.20
2022-08-27T04:14:51.712Z,2.40
2022-08-27T04:17:24.592Z,2.43
2022-08-27T04:20:18.801Z,2.40
2022-08-27T04:22:35.777Z,2.27
2022-08-27T04:25:10.466Z,2.30
2022-08-27T04:27:43.236Z,2.20
2022-08-27T04:30:17.596Z,2.60
2022-08-27T04:32:50.418Z,2.30
2022-08-27T04:35:23.252Z,2.30
2022-08-27T04:37:56.258Z,2.10
2022-08-27T04:40:29.950Z,2.13
2022-08-27T04:43:02.747Z,2.10
2022-08-27T04:45:35.500Z,2.00
2022-08-27T04:48:08.643Z,2.13
2022-08-27T04:50:49.367Z,2.10
2022-08-27T04:53:22.585Z,2.10
2022-08-27T04:55:57.696Z,2.10
2022-08-27T04:58:30.662Z,2.10
2022-08-27T05:01:03.543Z,2.10
2022-08-27T05:03:36.321Z,2.10
2022-08-27T05:06:10.404Z,2.00
2022-08-27T05:08:44.056Z,2.20
2022-08-27T05:11:22.795Z,2.10
2022-08-27T05:14:00.486Z,2.10
2022-08-27T05:16:33.417Z,2.30
2022-08-27T05:19:07.364Z,2.10
2022-08-27T05:21:42.008Z,2.00
2022-08-27T05:24:14.826Z,2.10
2022-08-27T05:26:48.055Z,2.10
2022-08-27T05:29:20.930Z,2.03
2022-08-27T05:31:53.897Z,2.00
2022-08-27T05:34:30.429Z,1.80
2022-08-27T05:37:03.215Z,1.90
2022-08-27T05:39:36.058Z,1.80
2022-08-27T05:42:09.120Z,1.70
2022-08-27T05:44:45.858Z,1.70
2022-08-27T05:47:18.496Z,1.70
2022-08-27T05:49:51.496Z,1.73
2022-08-27T05:52:27.742Z,1.70
2022-08-27T05:55:00.498Z,1.70
2022-08-27T05:57:33.320Z,1.70
2022-08-27T06:00:24.967Z,1.67
2022-08-27T06:02:58.258Z,1.60
2022-08-27T06:05:31.293Z,1.50
2022-08-27T06:08:04.397Z,1.70
2022-08-27T06:10:38.250Z,1.70
2022-08-27T06:13:12.497Z,1.60
2022-08-27T06:15:45.149Z,1.70
2022-08-27T06:18:18.458Z,1.70
2022-08-27T06:20:51.313Z,2.53
2022-08-27T06:23:27.937Z,1.70
2022-08-27T06:25:58.674Z,1.80
2022-08-27T06:28:33.214Z,1.60
2022-08-27T06:31:17.439Z,1.70
2022-08-27T06:33:54.987Z,1.83
2022-08-27T06:36:29.246Z,1.80
2022-08-27T06:39:02.719Z,1.87
2022-08-27T06:41:36.241Z,1.90
2022-08-27T06:44:09.093Z,1.83
2022-08-27T06:46:42.510Z,1.80
2022-08-27T06:49:16.603Z,1.87
2022-08-27T06:51:50.641Z,1.80
2022-08-27T06:54:23.623Z,1.80
2022-08-27T06:56:56.434Z,2.20
2022-08-27T06:59:29.620Z,1.97
2022-08-27T07:02:02.418Z,1.90
2022-08-27T07:04:35.570Z,1.90
2022-08-27T07:07:10.003Z,1.80
2022-08-27T07:09:43.043Z,1.90
2022-08-27T07:12:17.045Z,2.03
2022-08-27T07:14:50.478Z,1.90
2022-08-27T07:17:23.401Z,1.80
2022-08-27T07:19:56.419Z,1.90
2022-08-27T07:22:29.189Z,2.00
2022-08-27T07:25:02.091Z,1.90
2022-08-27T07:27:35.002Z,1.80
2022-08-27T07:30:09.447Z,1.80
2022-08-27T07:32:44.847Z,2.00
2022-08-27T07:35:20.612Z,2.00
2022-08-27T07:37:57.067Z,2.10
2022-08-27T07:40:38.408Z,2.00
2022-08-27T07:43:32.306Z,2.20
2022-08-27T07:46:09.961Z,1.70
2022-08-27T07:48:43.570Z,1.80
2022-08-27T07:51:21.149Z,1.70
2022-08-27T07:53:54.368Z,1.90
2022-08-27T07:56:27.940Z,1.83
2022-08-27T07:59:01.139Z,1.90
2022-08-27T08:01:34.809Z,1.90
2022-08-27T08:04:08.096Z,1.90
2022-08-27T08:06:43.047Z,1.90
2022-08-27T08:09:16.329Z,1.87
2022-08-27T08:11:49.374Z,1.80
2022-08-27T08:14:23.384Z,1.80
2022-08-27T08:16:56.768Z,1.80
2022-08-27T08:19:29.841Z,1.90
2022-08-27T08:22:05.952Z,1.87
2022-08-27T08:24:38.757Z,1.83
2022-08-27T08:27:13.150Z,1.90
2022-08-27T08:29:46.002Z,1.80
2022-08-27T08:32:19.361Z,1.80
2022-08-27T08:34:52.821Z,1.90
2022-08-27T08:37:25.966Z,1.90
2022-08-27T08:39:58.892Z,1.80
2022-08-27T08:42:42.464Z,1.90
2022-08-27T08:45:20.936Z,1.80
2022-08-27T08:47:59.130Z,1.70
2022-08-27T08:50:33.992Z,1.70
2022-08-27T08:53:11.529Z,1.80
2022-08-27T08:55:52.567Z,1.63
2022-08-27T08:58:41.233Z,1.70
2022-08-27T09:01:16.583Z,1.80
2022-08-27T09:03:51.436Z,1.80
2022-08-27T09:06:26.069Z,1.80
2022-08-27T09:09:03.231Z,1.80
2022-08-27T09:11:40.833Z,1.80
2022-08-27T09:14:25.046Z,1.80
2022-08-27T09:16:58.534Z,1.90
2022-08-27T09:19:32.146Z,1.80
2022-08-27T09:22:16.266Z,1.80
2022-08-27T09:25:06.128Z,1.80
2022-08-27T09:27:40.970Z,1.70
2022-08-27T09:30:16.500Z,1.90
2022-08-27T09:32:51.269Z,1.80
2022-08-27T09:35:25.761Z,1.80
2022-08-27T09:38:00.616Z,1.80
2022-08-27T09:40:35.346Z,1.80
2022-08-27T09:43:13.348Z,1.83
2022-08-27T09:45:57.255Z,1.70
2022-08-27T09:48:38.208Z,1.90
2022-08-27T09:51:19.253Z,1.70
2022-08-27T09:54:01.445Z,1.67
2022-08-27T09:56:35.900Z,1.80
2022-08-27T09:59:11.252Z,1.80
2022-08-27T10:01:58.124Z,1.70
2022-08-27T10:04:50.657Z,1.77
2022-08-27T10:07:39.027Z,1.80
2022-08-27T10:10:16.719Z,1.70
2022-08-27T10:13:00.563Z,1.80
2022-08-27T10:15:41.905Z,2.00
2022-08-27T10:18:28.398Z,1.80
2022-08-27T10:21:17.538Z,2.00
2022-08-27T10:24:11.052Z,1.80
2022-08-27T10:26:57.686Z,1.90
2022-08-27T10:29:41.713Z,1.97
2022-08-27T10:32:17.290Z,1.90
2022-08-27T10:35:19.617Z,1.93
2022-08-27T10:38:18.347Z,1.90
2022-08-27T10:40:56.404Z,1.77
2022-08-27T10:43:51.929Z,1.87
2022-08-27T10:46:35.665Z,1.80
2022-08-27T10:49:35.810Z,1.97
2022-08-27T10:52:38.565Z,1.90
2022-08-27T10:55:19.640Z,2.00
2022-08-27T10:58:01.052Z,2.00
2022-08-27T11:00:36.730Z,1.90
2022-08-27T11:03:23.368Z,1.90
2022-08-27T11:05:57.282Z,1.80
2022-08-27T11:08:32.618Z,1.80
2022-08-27T11:11:56.920Z,1.80
2022-08-27T11:13:53.791Z,1.90
2022-08-27T11:16:33.365Z,1.80
2022-08-27T11:19:08.473Z,1.70
2022-08-27T11:21:47.277Z,1.80
2022-08-27T11:24:37.036Z,1.80
2022-08-27T11:27:11.636Z,1.80
2022-08-27T11:30:02.941Z,1.80
2022-08-27T11:32:52.742Z,1.80
2022-08-27T11:35:36.268Z,1.90
2022-08-27T11:38:14.505Z,1.70
2022-08-27T11:40:59.438Z,1.80
2022-08-27T11:43:34.381Z,1.80
2022-08-27T11:46:09.413Z,1.70
2022-08-27T11:48:50.713Z,1.77
2022-08-27T11:51:42.707Z,1.90
2022-08-27T11:54:17.910Z,1.70
2022-08-27T11:56:50.787Z,1.80
2022-08-27T11:59:28.681Z,1.70
2022-08-27T12:02:03.801Z,1.80
2022-08-27T12:04:38.937Z,1.70
2022-08-27T12:07:24.216Z,1.70
2022-08-27T12:10:02.348Z,1.70
2022-08-27T12:13:04.898Z,1.70
2022-08-27T12:15:58.721Z,1.80
2022-08-27T12:18:46.504Z,1.80
2022-08-27T12:21:38.021Z,1.80
2022-08-27T12:24:28.086Z,1.70
2022-08-27T12:27:03.478Z,2.03
2022-08-27T12:29:47.372Z,1.80
2022-08-27T12:32:37.233Z,1.80
2022-08-27T12:35:16.056Z,1.80
2022-08-27T12:37:51.114Z,1.93
2022-08-27T12:40:32.635Z,1.83
2022-08-27T12:43:19.037Z,1.80
2022-08-27T12:45:54.463Z,1.80
2022-08-27T12:48:29.429Z,1.70
2022-08-27T12:51:07.760Z,1.80
2022-08-27T12:53:54.729Z,1.63
2022-08-27T12:56:44.759Z,1.57
2022-08-27T12:59:29.897Z,2.00
2022-08-27T13:02:19.708Z,1.90
2022-08-27T13:04:53.671Z,2.20
2022-08-27T13:07:37.845Z,1.83
2022-08-27T13:10:17.387Z,1.90
2022-08-27T13:12:51.505Z,2.07
2022-08-27T13:15:24.911Z,1.90
2022-08-27T13:17:58.762Z,1.80
2022-08-27T13:20:33.104Z,1.80
2022-08-27T13:23:06.263Z,1.90
2022-08-27T13:25:39.694Z,1.80
2022-08-27T13:28:17.488Z,1.80
2022-08-27T13:30:52.088Z,1.80
2022-08-27T13:33:30.535Z,1.93
2022-08-27T13:36:04.803Z,1.80
2022-08-27T13:38:39.816Z,1.80
2022-08-27T13:41:15.012Z,1.80
2022-08-27T13:43:49.266Z,1.80
2022-08-27T13:46:24.306Z,1.70
2022-08-27T13:48:59.421Z,1.60
2022-08-27T13:51:37.302Z,1.70
2022-08-27T13:54:18.966Z,1.60
2022-08-27T13:56:59.847Z,1.70
2022-08-27T13:59:39.007Z,1.80
2022-08-27T14:02:15.134Z,1.70
2022-08-27T14:04:55.930Z,1.80
2022-08-27T14:07:31.311Z,1.80
2022-08-27T14:10:35.399Z,1.67
2022-08-27T14:13:22.964Z,1.80
2022-08-27T14:15:58.707Z,1.80
2022-08-27T14:18:57.853Z,1.80
2022-08-27T14:21:11.218Z,1.70
2022-08-27T14:23:44.821Z,1.70
2022-08-27T14:26:19.472Z,1.70
2022-08-27T14:28:52.928Z,1.60
2022-08-27T14:31:26.614Z,1.50
2022-08-27T14:34:00.204Z,1.60
2022-08-27T14:36:34.980Z,1.50
2022-08-27T14:39:09.349Z,1.67
2022-08-27T14:41:43.020Z,1.50
2022-08-27T14:44:17.443Z,1.67
2022-08-27T14:46:50.371Z,1.60
2022-08-27T14:49:25.415Z,1.60
2022-08-27T14:51:58.819Z,1.57
2022-08-27T14:54:33.585Z,1.50
2022-08-27T14:57:06.890Z,1.60
2022-08-27T14:59:40.954Z,1.50
2022-08-27T15:02:16.143Z,1.50
2022-08-27T15:04:49.079Z,1.60
2022-08-27T15:07:22.805Z,1.63
2022-08-27T15:09:57.444Z,1.70
2022-08-27T15:12:30.320Z,1.53
2022-08-27T15:15:03.620Z,1.40
2022-08-27T15:17:36.691Z,1.40
2022-08-27T15:20:20.041Z,1.50
2022-08-27T15:22:49.822Z,1.30
2022-08-27T15:25:23.851Z,1.50
2022-08-27T15:27:56.704Z,1.43
2022-08-27T15:30:31.967Z,1.40
2022-08-27T15:33:05.688Z,1.50
2022-08-27T15:35:38.944Z,1.70
2022-08-27T15:38:11.751Z,1.73
2022-08-27T15:40:44.575Z,1.57
2022-08-27T15:43:17.997Z,1.60
2022-08-27T15:45:51.084Z,1.57
2022-08-27T15:48:23.903Z,1.60
2022-08-27T15:51:01.464Z,1.60
2022-08-27T15:53:34.471Z,1.60
2022-08-27T15:56:09.496Z,1.50
2022-08-27T15:58:45.377Z,1.50
2022-08-27T16:01:20.102Z,1.60
2022-08-27T16:03:53.215Z,1.50
2022-08-27T16:06:30.425Z,1.40
2022-08-27T16:09:03.446Z,1.50
2022-08-27T16:11:36.457Z,1.60
2022-08-27T16:14:11.771Z,1.50
2022-08-27T16:16:44.664Z,1.60
2022-08-27T16:19:18.096Z,1.50
2022-08-27T16:21:52.874Z,1.40
2022-08-27T16:24:28.917Z,1.57
2022-08-27T16:27:02.373Z,1.60
2022-08-27T16:29:35.102Z,1.50
2022-08-27T16:32:08.182Z,1.60
2022-08-27T16:34:41.013Z,1.70
2022-08-27T16:37:13.964Z,1.60
2022-08-27T16:39:47.534Z,1.70
2022-08-27T16:42:20.201Z,1.70
2022-08-27T16:44:53.025Z,1.50
2022-08-27T16:47:28.156Z,1.60
2022-08-27T16:50:25.605Z,1.50
2022-08-27T16:52:55.354Z,1.40
2022-08-27T16:55:32.193Z,1.50
2022-08-27T16:58:05.071Z,1.50
2022-08-27T17:00:41.571Z,1.50
2022-08-27T17:03:14.390Z,1.50
2022-08-27T17:05:47.283Z,1.50
2022-08-27T17:08:26.756Z,1.50
2022-08-27T17:11:00.220Z,1.60
2022-08-27T17:13:37.321Z,1.60
2022-08-27T17:16:11.285Z,1.60
2022-08-27T17:18:44.806Z,1.50
2022-08-27T17:21:19.289Z,1.50
2022-08-27T17:23:54.477Z,1.40
2022-08-27T17:26:28.966Z,1.40
2022-08-27T17:29:01.549Z,1.40
2022-08-27T17:31:36.491Z,1.40
2022-08-27T17:34:10.502Z,1.40
2022-08-27T17:36:47.498Z,1.40
2022-08-27T17:39:20.947Z,1.40
2022-08-27T17:41:55.632Z,1.30
2022-08-27T17:44:30.223Z,1.40
2022-08-27T17:47:06.867Z,1.50
2022-08-27T17:49:40.082Z,1.50
2022-08-27T17:52:14.935Z,1.30
2022-08-27T17:54:50.058Z,1.30
2022-08-27T17:57:28.359Z,1.30
2022-08-27T18:00:04.864Z,1.30
2022-08-27T18:02:40.456Z,1.50
2022-08-27T18:05:15.731Z,1.30
2022-08-27T18:07:49.421Z,1.33
2022-08-27T18:10:25.255Z,1.30
2022-08-27T18:12:58.797Z,1.30
2022-08-27T18:15:33.645Z,1.30
2022-08-27T18:18:06.964Z,1.30
2022-08-27T18:20:42.514Z,1.20
2022-08-27T18:23:16.804Z,1.17
2022-08-27T18:25:50.302Z,1.20
2022-08-27T18:28:28.362Z,1.20
2022-08-27T18:31:03.639Z,1.30
2022-08-27T18:33:36.046Z,1.20
2022-08-27T18:36:09.139Z,1.20
2022-08-27T18:38:42.218Z,1.20
2022-08-27T18:41:15.091Z,1.30
2022-08-27T18:43:48.080Z,1.20
2022-08-27T18:46:21.637Z,1.20
2022-08-27T18:48:54.915Z,1.20
2022-08-27T18:51:27.967Z,1.30
2022-08-27T18:54:06.294Z,1.20
2022-08-27T18:56:39.153Z,1.20
2022-08-27T18:59:16.810Z,1.20
2022-08-27T19:01:50.211Z,1.20
2022-08-27T19:04:23.451Z,1.13
2022-08-27T19:06:56.587Z,1.20
2022-08-27T19:09:30.223Z,1.10
2022-08-27T19:12:03.175Z,1.10
2022-08-27T19:14:35.983Z,1.20
2022-08-27T19:17:09.510Z,1.20
2022-08-27T19:19:42.461Z,1.20
2022-08-27T19:22:15.382Z,1.30
2022-08-27T19:24:50.302Z,1.30
2022-08-27T19:27:25.237Z,1.40
2022-08-27T19:29:58.545Z,1.40
2022-08-27T19:32:32.025Z,1.30
2022-08-27T19:35:04.944Z,1.30
2022-08-27T19:37:39.837Z,1.30
2022-08-27T19:40:18.965Z,1.50
2022-08-27T19:42:52.765Z,1.60
2022-08-27T19:45:26.008Z,1.60
2022-08-27T19:47:58.953Z,1.80
2022-08-27T19:50:36.100Z,1.80
2022-08-27T19:53:09.129Z,1.60
2022-08-27T19:55:43.173Z,1.70
2022-08-27T19:58:18.022Z,1.70
2022-08-27T20:00:51.514Z,1.90
2022-08-27T20:03:24.569Z,1.80
2022-08-27T20:05:57.666Z,1.80
2022-08-27T20:08:30.544Z,1.70
2022-08-27T20:11:07.732Z,1.80
2022-08-27T20:13:50.263Z,1.70
2022-08-27T20:16:14.969Z,1.70
2022-08-27T20:18:48.411Z,1.70
2022-08-27T20:21:21.334Z,1.90
2022-08-27T20:23:54.625Z,1.73
2022-08-27T20:26:28.464Z,1.60
2022-08-27T20:29:06.152Z,1.70
2022-08-27T20:31:39.516Z,1.70
2022-08-27T20:34:12.303Z,1.70
2022-08-27T20:36:46.080Z,1.90
2022-08-27T20:39:19.411Z,2.00
2022-08-27T20:41:53.534Z,2.00
2022-08-27T20:44:26.684Z,2.10
2022-08-27T20:47:01.211Z,2.10
2022-08-27T20:49:34.115Z,2.20
2022-08-27T20:52:11.462Z,2.13
2022-08-27T20:54:42.435Z,2.00
2022-08-27T20:57:15.277Z,2.10
2022-08-27T21:00:05.711Z,2.00
2022-08-27T21:02:38.650Z,2.17
2022-08-27T21:05:14.164Z,2.20
2022-08-27T21:07:48.344Z,2.20
2022-08-27T21:10:21.453Z,2.00
2022-08-27T21:12:54.316Z,2.10
2022-08-27T21:15:27.211Z,2.00
2022-08-27T21:18:02.294Z,2.10
2022-08-27T21:20:34.950Z,2.30
2022-08-27T21:23:08.039Z,2.20
2022-08-27T21:25:42.264Z,2.10
2022-08-27T21:28:15.489Z,2.20
2022-08-27T21:30:47.975Z,2.20
2022-08-27T21:33:20.758Z,2.20
2022-08-27T21:35:53.658Z,2.40
2022-08-27T21:38:26.584Z,2.40
2022-08-27T21:40:59.587Z,2.30
2022-08-27T21:43:32.454Z,2.30
2022-08-27T21:46:09.328Z,2.60
2022-08-27T21:48:59.059Z,2.63
2022-08-27T21:51:24.643Z,2.80
2022-08-27T21:53:56.790Z,2.60
2022-08-27T21:56:29.920Z,2.50
2022-08-27T21:59:02.851Z,2.80
2022-08-27T22:01:35.923Z,3.00
2022-08-27T22:04:09.025Z,2.50
2022-08-27T22:06:44.725Z,2.40
2022-08-27T22:09:17.694Z,2.50
2022-08-27T22:11:50.655Z,2.20
2022-08-27T22:14:23.548Z,2.00
2022-08-27T22:16:56.413Z,2.10
2022-08-27T22:19:29.339Z,1.97
2022-08-27T22:22:02.147Z,2.07
2022-08-27T22:24:34.828Z,2.10
2022-08-27T22:27:07.592Z,2.17
2022-08-27T22:29:40.873Z,2.10
2022-08-27T22:32:13.742Z,2.13
2022-08-27T22:34:46.561Z,2.20
2022-08-27T22:37:23.297Z,2.47
2022-08-27T22:39:56.370Z,2.20
2022-08-27T22:42:34.590Z,2.30
2022-08-27T22:45:09.347Z,2.10
2022-08-27T22:47:46.511Z,2.40
2022-08-27T22:50:20.119Z,2.17
2022-08-27T22:52:57.393Z,1.90
2022-08-27T22:55:30.291Z,2.17
2022-08-27T22:58:03.851Z,2.40
2022-08-27T23:00:38.548Z,1.80
2022-08-27T23:03:13.223Z,2.00
2022-08-27T23:05:46.192Z,1.70
2022-08-27T23:08:19.570Z,1.90
2022-08-27T23:10:57.722Z,1.80
2022-08-27T23:13:31.562Z,1.90
2022-08-27T23:16:08.501Z,1.70
2022-08-27T23:18:42.529Z,1.80
2022-08-27T23:21:15.390Z,2.07
2022-08-27T23:23:48.305Z,1.80
2022-08-27T23:26:42.606Z,2.00
2022-08-27T23:29:19.894Z,1.90
2022-08-27T23:31:53.802Z,1.70
2022-08-27T23:34:26.933Z,1.80
2022-08-27T23:37:04.137Z,1.70
2022-08-27T23:39:37.223Z,1.60
2022-08-27T23:42:10.362Z,1.60
2022-08-27T23:44:45.244Z,1.50
2022-08-27T23:47:18.119Z,1.30
2022-08-27T23:49:50.881Z,1.50
2022-08-27T23:52:23.564Z,1.40
2022-08-27T23:54:56.425Z,1.47
2022-08-27T23:57:29.454Z,1.37
